Time;durP1;ratioP1;P1;durP2;ratioP2;P2;SDS_P1;SDS_P2;PMS_P1;PMS_P2;Temp;Humidity;BMP_temperature;BMP_pressure;BME280_temperature;BME280_humidity;BME280_pressure;Samples;Min_cycle;Max_cycle;Signal;HPM_P1;HPM_P2
2023/07/09 00:02:11;;;;;;;17.20;12.00;;;22.90;89.80;;;;;;4952535;28;20047;-64
2023/07/09 00:04:37;;;;;;;14.30;11.10;;;22.80;89.40;;;;;;4952854;28;20557;-65
2023/07/09 00:07:04;;;;;;;18.35;11.77;;;22.80;89.50;;;;;;4955761;28;20122;-64
2023/07/09 00:09:30;;;;;;;17.85;11.10;;;22.70;90.00;;;;;;4961648;28;20050;-64
2023/07/09 00:11:56;;;;;;;18.67;11.60;;;22.60;90.00;;;;;;4957821;28;20047;-64
2023/07/09 00:14:22;;;;;;;16.55;12.23;;;22.60;89.90;;;;;;4956878;29;20031;-65
2023/07/09 00:16:48;;;;;;;14.75;11.20;;;22.60;89.80;;;;;;4954279;28;20046;-62
2023/07/09 00:19:20;;;;;;;13.05;10.68;;;22.60;90.00;;;;;;4955726;28;20053;-62
2023/07/09 00:21:47;;;;;;;14.57;11.82;;;22.30;91.10;;;;;;4956558;28;20054;-62
2023/07/09 00:24:13;;;;;;;17.23;11.30;;;22.00;91.90;;;;;;4956719;29;20079;-62
2023/07/09 00:26:40;;;;;;;15.65;11.35;;;21.90;92.30;;;;;;4954501;28;20090;-62
2023/07/09 00:29:12;;;;;;;14.23;11.18;;;21.80;92.60;;;;;;4955339;28;20035;-62
2023/07/09 00:31:40;;;;;;;16.90;12.77;;;21.90;93.20;;;;;;4956640;28;20082;-62
2023/07/09 00:34:14;;;;;;;14.18;11.55;;;21.90;92.60;;;;;;4954420;28;20031;-62
2023/07/09 00:36:45;;;;;;;15.10;11.63;;;21.80;93.20;;;;;;4955786;28;20370;-63
2023/07/09 00:39:18;;;;;;;13.70;11.40;;;21.70;93.10;;;;;;4955864;28;20386;-62
2023/07/09 00:41:45;;;;;;;18.38;11.82;;;21.60;94.10;;;;;;4956002;29;20039;-64
2023/07/09 00:44:20;;;;;;;15.38;11.82;;;21.50;93.60;;;;;;4960259;28;20424;-64
2023/07/09 00:46:49;;;;;;;16.88;12.07;;;21.40;94.00;;;;;;4955631;28;20446;-65
2023/07/09 00:49:29;;;;;;;14.50;12.38;;;21.60;93.30;;;;;;4955882;28;20441;-64
2023/07/09 00:52:01;;;;;;;16.33;11.82;;;21.70;93.30;;;;;;4959644;28;20043;-65
2023/07/09 00:54:46;;;;;;;14.45;12.55;;;21.80;92.80;;;;;;4956062;28;20050;-65
2023/07/09 00:57:19;;;;;;;17.75;13.27;;;21.90;93.60;;;;;;4955928;28;20039;-64
2023/07/09 00:59:49;;;;;;;13.57;11.75;;;21.90;92.70;;;;;;4958773;28;20043;-63
2023/07/09 01:02:15;;;;;;;15.63;12.23;;;22.00;92.50;;;;;;4955449;28;20115;-63
2023/07/09 01:04:41;;;;;;;19.02;12.20;;;22.00;92.30;;;;;;4955331;28;20074;-63
2023/07/09 01:07:08;;;;;;;13.88;12.32;;;22.00;92.20;;;;;;4953862;28;20042;-63
2023/07/09 01:09:40;;;;;;;17.20;12.65;;;22.00;92.20;;;;;;4962321;28;20047;-62
2023/07/09 01:12:08;;;;;;;16.08;12.77;;;22.00;92.30;;;;;;4955523;28;20047;-63
2023/07/09 01:14:35;;;;;;;14.95;12.55;;;22.00;92.40;;;;;;4955788;29;20042;-63
2023/07/09 01:17:07;;;;;;;16.73;13.00;;;22.00;92.50;;;;;;4952233;28;20695;-62
2023/07/09 01:19:43;;;;;;;15.85;12.77;;;21.90;92.70;;;;;;4954931;28;20043;-62
2023/07/09 01:22:11;;;;;;;15.95;12.93;;;22.00;92.80;;;;;;4955599;28;20050;-62
2023/07/09 01:24:51;;;;;;;20.35;12.48;;;21.90;92.30;;;;;;4953524;28;20406;-63
2023/07/09 01:27:23;;;;;;;15.50;12.75;;;21.90;92.70;;;;;;4954780;28;20086;-63
2023/07/09 01:29:49;;;;;;;20.30;12.90;;;21.90;92.30;;;;;;4953967;28;20406;-63
2023/07/09 01:32:18;;;;;;;13.98;12.40;;;21.90;92.30;;;;;;4953636;28;20097;-63
2023/07/09 01:34:47;;;;;;;15.70;12.80;;;21.80;92.40;;;;;;4959785;28;20039;-63
2023/07/09 01:37:13;;;;;;;18.00;13.82;;;21.80;92.50;;;;;;4954728;28;20050;-65
2023/07/09 01:39:40;;;;;;;14.05;12.32;;;21.70;92.60;;;;;;4955302;29;20047;-65
2023/07/09 01:42:08;;;;;;;17.48;13.27;;;21.60;92.70;;;;;;4956178;28;20079;-62
2023/07/09 01:44:35;;;;;;;16.95;13.10;;;21.60;92.80;;;;;;4960133;28;20036;-63
2023/07/09 01:47:03;;;;;;;15.85;12.38;;;21.60;92.80;;;;;;4954944;28;20035;-62
2023/07/09 01:49:32;;;;;;;20.98;13.25;;;21.60;92.90;;;;;;4955000;29;20047;-63
2023/07/09 01:52:00;;;;;;;17.40;13.07;;;21.50;93.00;;;;;;4952699;28;20076;-62
2023/07/09 01:54:30;;;;;;;17.75;12.50;;;21.50;93.00;;;;;;4954548;28;20110;-63
2023/07/09 01:57:19;;;;;;;15.35;13.27;;;21.40;93.10;;;;;;4937534;29;20123;-62
2023/07/09 01:59:45;;;;;;;16.20;12.93;;;21.40;93.70;;;;;;4954335;28;20042;-61
2023/07/09 02:02:18;;;;;;;19.02;13.85;;;21.30;93.30;;;;;;4954512;28;20050;-64
2023/07/09 02:04:54;;;;;;;19.55;13.20;;;21.20;93.40;;;;;;4954863;29;20043;-65
2023/07/09 02:07:22;;;;;;;19.83;13.27;;;21.20;93.50;;;;;;4955976;28;20035;-64
2023/07/09 02:09:48;;;;;;;15.93;13.38;;;21.20;93.60;;;;;;4954481;28;20550;-65
2023/07/09 02:12:15;;;;;;;16.65;13.63;;;21.10;93.80;;;;;;4954581;28;20039;-65
2023/07/09 02:14:42;;;;;;;15.75;13.23;;;21.00;93.90;;;;;;4958458;28;20047;-64
2023/07/09 02:17:08;;;;;;;16.70;13.07;;;20.90;94.40;;;;;;4938739;28;20047;-64
2023/07/09 02:19:34;;;;;;;15.65;13.07;;;20.90;94.50;;;;;;4953992;28;20516;-64
2023/07/09 02:22:00;;;;;;;14.85;11.95;;;20.70;94.80;;;;;;4954213;28;21014;-64
2023/07/09 02:24:27;;;;;;;17.27;12.98;;;20.60;95.10;;;;;;4955350;28;20126;-64
2023/07/09 02:26:54;;;;;;;15.75;13.50;;;20.50;95.40;;;;;;4953933;28;20379;-63
2023/07/09 02:29:19;;;;;;;17.48;13.68;;;20.40;95.50;;;;;;4954386;28;20083;-64
2023/07/09 02:31:45;;;;;;;17.25;13.95;;;20.30;95.70;;;;;;4955237;28;20047;-65
2023/07/09 02:34:11;;;;;;;20.30;13.15;;;20.20;96.00;;;;;;4953606;28;20090;-64
2023/07/09 02:36:37;;;;;;;14.82;13.05;;;20.10;96.20;;;;;;4954357;28;20035;-63
2023/07/09 02:39:03;;;;;;;15.57;12.30;;;20.10;96.40;;;;;;4962546;28;20077;-64
2023/07/09 02:41:28;;;;;;;16.13;13.20;;;20.00;96.60;;;;;;4964438;28;20075;-64
2023/07/09 02:43:54;;;;;;;16.98;13.88;;;20.00;96.80;;;;;;4961379;28;20066;-64
2023/07/09 02:46:19;;;;;;;18.08;13.43;;;19.90;97.00;;;;;;4953919;28;20043;-64
2023/07/09 02:48:45;;;;;;;17.50;13.43;;;19.80;97.20;;;;;;4979734;23;20301;-63
2023/07/09 02:51:11;;;;;;;19.23;13.85;;;19.70;97.30;;;;;;4985930;28;20129;-62
2023/07/09 02:53:36;;;;;;;19.35;13.35;;;19.70;97.40;;;;;;4992339;28;20030;-63
2023/07/09 02:56:02;;;;;;;18.73;12.93;;;19.60;97.70;;;;;;4982873;28;20090;-63
2023/07/09 02:58:27;;;;;;;15.63;13.38;;;19.60;97.80;;;;;;4980142;28;20550;-63
2023/07/09 03:00:53;;;;;;;17.30;12.15;;;19.60;97.90;;;;;;4990590;28;20038;-65
2023/07/09 03:03:20;;;;;;;15.88;12.02;;;19.60;98.00;;;;;;4988583;28;20042;-63
2023/07/09 03:05:46;;;;;;;14.77;12.23;;;19.50;98.20;;;;;;4977918;28;20057;-62
2023/07/09 03:08:12;;;;;;;15.40;12.48;;;19.40;98.30;;;;;;4989470;28;20049;-62
2023/07/09 03:10:38;;;;;;;14.90;12.13;;;19.40;98.40;;;;;;4992505;28;20054;-63
2023/07/09 03:13:03;;;;;;;20.92;13.35;;;19.40;98.50;;;;;;4992646;28;20034;-65
2023/07/09 03:15:30;;;;;;;16.85;13.40;;;19.30;98.60;;;;;;4973043;28;20110;-65
2023/07/09 03:17:55;;;;;;;16.38;12.90;;;19.30;98.70;;;;;;4978338;28;20187;-64
2023/07/09 03:20:21;;;;;;;16.30;12.95;;;19.30;98.80;;;;;;4992402;28;20369;-62
2023/07/09 03:22:47;;;;;;;14.52;12.65;;;19.20;99.00;;;;;;4971213;28;20039;-62
2023/07/09 03:25:12;;;;;;;16.00;13.02;;;19.20;99.10;;;;;;4972551;28;20537;-62
2023/07/09 03:27:38;;;;;;;14.98;12.23;;;19.20;99.30;;;;;;4972503;28;20046;-62
2023/07/09 03:30:04;;;;;;;15.93;13.43;;;19.10;99.50;;;;;;4973607;28;20039;-62
2023/07/09 03:32:30;;;;;;;16.92;13.13;;;19.10;99.60;;;;;;4970670;28;20126;-62
2023/07/09 03:34:55;;;;;;;17.00;13.48;;;19.10;99.70;;;;;;4955553;28;20141;-62
2023/07/09 03:37:21;;;;;;;15.60;12.68;;;19.20;99.60;;;;;;4971454;28;20098;-63
2023/07/09 03:39:46;;;;;;;15.52;13.13;;;19.20;99.60;;;;;;4973749;28;20125;-63
2023/07/09 03:42:12;;;;;;;16.25;13.98;;;19.30;99.70;;;;;;4975431;28;20142;-64
2023/07/09 03:44:38;;;;;;;18.58;13.07;;;19.30;99.70;;;;;;4990338;28;20049;-65
2023/07/09 03:47:04;;;;;;;17.23;13.82;;;19.30;99.80;;;;;;4986999;28;20035;-64
2023/07/09 03:49:29;;;;;;;15.75;13.73;;;19.30;99.90;;;;;;4986187;28;20043;-64
2023/07/09 03:51:55;;;;;;;17.58;14.00;;;19.30;99.90;;;;;;4976057;28;20516;-64
2023/07/09 03:54:21;;;;;;;15.38;13.00;;;19.30;99.90;;;;;;4975936;28;20054;-64
2023/07/09 03:56:46;;;;;;;16.85;13.95;;;19.30;99.90;;;;;;4980432;28;20118;-65
2023/07/09 03:59:12;;;;;;;16.55;14.07;;;19.30;99.90;;;;;;4975850;28;20050;-64
2023/07/09 04:01:37;;;;;;;15.60;13.27;;;19.30;99.90;;;;;;4976064;28;20047;-65
2023/07/09 04:04:03;;;;;;;15.32;13.07;;;19.30;99.90;;;;;;4974101;28;20055;-65
2023/07/09 04:06:29;;;;;;;15.00;12.88;;;19.40;99.90;;;;;;4977876;28;20548;-65
2023/07/09 04:08:55;;;;;;;16.25;12.98;;;19.40;99.90;;;;;;4975755;28;20047;-65
2023/07/09 04:11:20;;;;;;;18.73;13.88;;;19.50;99.90;;;;;;4974234;28;20035;-64
2023/07/09 04:13:46;;;;;;;16.10;13.23;;;19.60;99.90;;;;;;4984824;28;20051;-64
2023/07/09 04:16:12;;;;;;;16.52;13.27;;;19.70;99.90;;;;;;4995068;28;20034;-64
2023/07/09 04:18:37;;;;;;;15.07;12.85;;;19.80;99.90;;;;;;4994975;28;20034;-65
2023/07/09 04:21:03;;;;;;;17.70;12.13;;;19.90;99.90;;;;;;4987837;28;20110;-65
2023/07/09 04:23:29;;;;;;;17.25;13.70;;;20.10;99.90;;;;;;4975697;28;20060;-65
2023/07/09 04:25:55;;;;;;;16.75;13.20;;;20.20;99.90;;;;;;4975695;28;20039;-65
2023/07/09 04:28:20;;;;;;;16.92;12.80;;;20.30;99.90;;;;;;4975648;28;20035;-64
2023/07/09 04:30:50;;;;;;;16.52;13.38;;;20.40;99.90;;;;;;4981704;28;20142;-64
2023/07/09 04:33:17;;;;;;;14.52;12.50;;;20.50;99.90;;;;;;4986502;28;20062;-62
2023/07/09 04:35:47;;;;;;;17.05;13.70;;;20.60;99.90;;;;;;4987779;28;20042;-63
2023/07/09 04:38:14;;;;;;;16.65;13.55;;;20.70;99.90;;;;;;4975303;28;20053;-64
2023/07/09 04:40:40;;;;;;;20.33;14.57;;;20.80;99.90;;;;;;4973044;28;20519;-65
2023/07/09 04:43:05;;;;;;;19.40;14.43;;;21.00;99.90;;;;;;4974957;28;20031;-65
2023/07/09 04:45:31;;;;;;;18.33;13.50;;;21.10;99.90;;;;;;4974746;28;20035;-65
2023/07/09 04:47:56;;;;;;;18.50;13.30;;;21.20;99.90;;;;;;4974414;28;20093;-61
2023/07/09 04:50:22;;;;;;;15.95;13.48;;;21.30;99.90;;;;;;4975665;28;20039;-63
2023/07/09 04:52:48;;;;;;;16.70;13.10;;;21.40;99.90;;;;;;4971741;28;20042;-63
2023/07/09 04:55:13;;;;;;;17.20;12.98;;;21.50;99.90;;;;;;4987335;28;20034;-62
2023/07/09 04:57:39;;;;;;;20.08;13.00;;;21.60;99.80;;;;;;4988256;28;20062;-63
2023/07/09 05:00:06;;;;;;;15.90;12.52;;;21.70;99.80;;;;;;4975054;28;20034;-63
2023/07/09 05:02:32;;;;;;;16.35;12.70;;;21.80;99.80;;;;;;4973208;28;20038;-63
2023/07/09 05:04:58;;;;;;;16.90;13.00;;;21.90;99.80;;;;;;4973221;28;20481;-63
2023/07/09 05:07:24;;;;;;;18.35;12.85;;;22.00;99.70;;;;;;4992861;28;20129;-62
2023/07/09 05:09:49;;;;;;;21.10;12.90;;;22.10;99.80;;;;;;4982364;28;20081;-62
2023/07/09 05:12:15;;;;;;;14.68;12.20;;;22.30;99.80;;;;;;4973389;28;20046;-65
2023/07/09 05:14:41;;;;;;;18.45;12.18;;;22.30;99.60;;;;;;4973027;28;20555;-65
2023/07/09 05:17:07;;;;;;;16.50;12.50;;;22.50;99.70;;;;;;4972073;28;20039;-63
2023/07/09 05:19:33;;;;;;;16.33;12.57;;;22.60;99.70;;;;;;4968758;28;20508;-66
2023/07/09 05:21:59;;;;;;;16.73;12.70;;;22.60;99.50;;;;;;4969053;28;20042;-65
2023/07/09 05:24:24;;;;;;;17.38;12.20;;;22.70;99.60;;;;;;4974303;28;20046;-65
2023/07/09 05:26:50;;;;;;;18.83;13.57;;;22.70;99.70;;;;;;4971670;28;20035;-64
2023/07/09 05:29:15;;;;;;;18.50;13.30;;;22.80;99.80;;;;;;4972997;28;20046;-65
2023/07/09 05:31:41;;;;;;;18.90;13.35;;;22.90;99.80;;;;;;4972575;28;20089;-65
2023/07/09 05:34:08;;;;;;;17.40;13.50;;;22.90;99.90;;;;;;4969866;28;20031;-65
2023/07/09 05:36:34;;;;;;;20.20;13.60;;;22.90;99.90;;;;;;4980131;28;20035;-65
2023/07/09 05:39:00;;;;;;;18.58;13.65;;;23.00;99.90;;;;;;4978244;28;20045;-65
2023/07/09 05:41:25;;;;;;;17.52;13.57;;;23.00;99.90;;;;;;4974252;28;20100;-66
2023/07/09 05:43:52;;;;;;;18.15;13.70;;;23.10;99.90;;;;;;4970288;28;20112;-63
2023/07/09 05:46:19;;;;;;;19.60;14.38;;;23.10;99.90;;;;;;4976914;28;20074;-64
2023/07/09 05:48:45;;;;;;;19.20;13.40;;;23.10;99.90;;;;;;4975245;28;20547;-64
2023/07/09 05:51:10;;;;;;;18.17;13.90;;;23.10;99.90;;;;;;4971160;28;20038;-67
2023/07/09 05:53:36;;;;;;;22.10;13.63;;;23.20;99.90;;;;;;4976749;28;20043;-63
2023/07/09 05:56:02;;;;;;;17.50;13.57;;;23.20;99.90;;;;;;4976690;28;20481;-67
2023/07/09 05:58:27;;;;;;;17.08;13.02;;;23.20;99.90;;;;;;4970744;28;20569;-67
2023/07/09 06:00:56;;;;;;;18.75;14.27;;;23.30;99.90;;;;;;4976429;28;20046;-63
2023/07/09 06:03:23;;;;;;;20.92;14.73;;;23.30;99.90;;;;;;4974562;28;20037;-66
2023/07/09 06:05:49;;;;;;;16.70;14.27;;;23.30;99.90;;;;;;4968329;28;20038;-66
2023/07/09 06:08:21;;;;;;;21.17;15.00;;;23.40;99.90;;;;;;4927894;28;20085;-65
2023/07/09 06:11:02;;;;;;;20.75;14.60;;;23.40;99.90;;;;;;4976231;28;20173;-62
2023/07/09 06:13:30;;;;;;;20.98;14.48;;;23.50;99.90;;;;;;4977182;28;20149;-65
2023/07/09 06:15:56;;;;;;;19.38;13.75;;;23.60;99.90;;;;;;4972847;28;20037;-65
2023/07/09 06:18:23;;;;;;;19.92;13.38;;;23.60;99.90;;;;;;4975104;28;20738;-65
2023/07/09 06:20:51;;;;;;;17.67;13.35;;;23.70;99.90;;;;;;4973999;28;20046;-65
2023/07/09 06:23:17;;;;;;;17.30;12.80;;;23.80;99.90;;;;;;4951395;28;20121;-65
2023/07/09 06:25:47;;;;;;;16.73;12.73;;;23.90;99.90;;;;;;4968995;28;20453;-66
2023/07/09 06:28:16;;;;;;;20.23;12.65;;;23.90;99.90;;;;;;4973879;28;20042;-63
2023/07/09 06:30:42;;;;;;;18.73;12.45;;;24.00;99.90;;;;;;4975618;28;20078;-66
2023/07/09 06:33:07;;;;;;;16.70;12.10;;;24.10;99.90;;;;;;4968285;28;20042;-67
2023/07/09 06:35:33;;;;;;;18.85;12.60;;;24.30;99.90;;;;;;4977927;28;20037;-63
2023/07/09 06:37:58;;;;;;;18.55;12.30;;;24.30;99.90;;;;;;4960561;28;20713;-64
2023/07/09 06:40:24;;;;;;;16.85;12.57;;;24.40;99.90;;;;;;4976958;28;20041;-63
2023/07/09 06:42:50;;;;;;;18.98;11.98;;;24.40;99.90;;;;;;4975765;28;20595;-64
2023/07/09 06:45:16;;;;;;;16.40;11.88;;;24.50;99.90;;;;;;4975394;28;20050;-66
2023/07/09 06:47:42;;;;;;;18.23;12.98;;;24.60;99.90;;;;;;4982787;28;20042;-66
2023/07/09 06:50:08;;;;;;;15.85;12.30;;;24.60;99.90;;;;;;4967578;28;20051;-66
2023/07/09 06:52:33;;;;;;;20.33;12.85;;;24.70;99.90;;;;;;4950815;28;20042;-67
2023/07/09 06:54:59;;;;;;;18.15;12.70;;;24.80;99.90;;;;;;4964440;28;20189;-66
2023/07/09 06:57:25;;;;;;;15.93;12.77;;;24.80;99.90;;;;;;4961249;28;20038;-63
2023/07/09 06:59:50;;;;;;;20.30;12.75;;;24.90;99.90;;;;;;4968061;28;20030;-67
2023/07/09 07:02:16;;;;;;;17.73;13.13;;;25.00;99.90;;;;;;4972433;28;20116;-66
2023/07/09 07:04:41;;;;;;;17.48;12.75;;;25.10;99.90;;;;;;4972892;28;20043;-65
2023/07/09 07:07:07;;;;;;;16.67;13.02;;;25.10;99.90;;;;;;4969927;28;20496;-65
2023/07/09 07:09:33;;;;;;;14.80;12.13;;;25.20;99.90;;;;;;4972007;28;20066;-66
2023/07/09 07:11:58;;;;;;;16.00;12.63;;;25.30;99.90;;;;;;4973664;28;20038;-64
2023/07/09 07:14:24;;;;;;;17.73;12.90;;;25.50;99.90;;;;;;4969075;28;20117;-65
2023/07/09 07:16:50;;;;;;;18.88;12.95;;;25.60;99.90;;;;;;4969847;28;20101;-63
2023/07/09 07:19:16;;;;;;;16.88;13.38;;;25.70;99.90;;;;;;4977315;28;20671;-63
2023/07/09 07:21:41;;;;;;;16.73;13.35;;;25.80;99.90;;;;;;4970949;28;20049;-65
2023/07/09 07:24:07;;;;;;;18.85;14.18;;;25.90;99.90;;;;;;4979595;28;20038;-65
2023/07/09 07:26:33;;;;;;;18.40;14.00;;;26.00;99.90;;;;;;4982896;28;20445;-64
2023/07/09 07:28:59;;;;;;;24.77;14.48;;;26.10;99.90;;;;;;4952776;28;20051;-65
2023/07/09 07:31:25;;;;;;;23.13;14.32;;;26.20;99.80;;;;;;4960402;28;20043;-63
2023/07/09 07:33:51;;;;;;;17.60;13.95;;;26.30;99.90;;;;;;4971319;28;20050;-64
2023/07/09 07:36:16;;;;;;;25.00;14.95;;;26.40;99.90;;;;;;4971537;28;20085;-62
2023/07/09 07:38:42;;;;;;;17.73;13.93;;;26.40;99.90;;;;;;4974354;28;20038;-63
2023/07/09 07:41:08;;;;;;;20.00;14.18;;;26.50;99.90;;;;;;4969883;28;20042;-65
2023/07/09 07:43:33;;;;;;;20.08;14.40;;;26.60;99.90;;;;;;4968637;28;20043;-66
2023/07/09 07:45:59;;;;;;;23.15;14.65;;;26.60;99.80;;;;;;4979118;28;20053;-64
2023/07/09 07:48:25;;;;;;;17.40;13.55;;;26.70;99.80;;;;;;4969708;28;20053;-65
2023/07/09 07:50:51;;;;;;;16.63;13.65;;;26.70;99.50;;;;;;4971201;28;20130;-65
2023/07/09 07:53:17;;;;;;;22.65;13.07;;;26.80;99.30;;;;;;4971584;28;20093;-66
2023/07/09 07:55:42;;;;;;;19.70;13.45;;;27.00;99.70;;;;;;4969490;28;20078;-65
2023/07/09 07:58:11;;;;;;;18.00;13.02;;;27.20;99.60;;;;;;4971021;28;20043;-65
2023/07/09 08:00:38;;;;;;;14.95;12.18;;;27.20;99.20;;;;;;4971692;28;20046;-64
2023/07/09 08:03:04;;;;;;;22.58;12.75;;;27.30;99.20;;;;;;4954519;28;20046;-64
2023/07/09 08:05:30;;;;;;;16.70;12.50;;;27.40;99.30;;;;;;4975488;28;20108;-64
2023/07/09 08:07:55;;;;;;;19.13;12.05;;;27.50;99.20;;;;;;4971689;28;20046;-63
2023/07/09 08:10:21;;;;;;;14.38;11.15;;;27.50;99.00;;;;;;4972521;28;20130;-62
2023/07/09 08:12:47;;;;;;;20.48;11.00;;;27.50;98.70;;;;;;4969735;28;20512;-62
2023/07/09 08:15:12;;;;;;;16.20;10.93;;;27.60;98.20;;;;;;4986117;28;20039;-63
2023/07/09 08:17:38;;;;;;;16.27;10.68;;;27.60;98.00;;;;;;4971605;28;20086;-62
2023/07/09 08:20:05;;;;;;;16.90;11.20;;;27.60;97.90;;;;;;4972140;28;20039;-63
2023/07/09 08:22:30;;;;;;;15.02;10.75;;;27.80;98.60;;;;;;4969459;28;20035;-63
2023/07/09 08:24:56;;;;;;;13.38;10.05;;;28.00;98.30;;;;;;4971931;28;20459;-64
2023/07/09 08:27:21;;;;;;;14.35;9.82;;;28.00;97.70;;;;;;4973562;28;20066;-62
2023/07/09 08:29:47;;;;;;;16.15;10.15;;;28.10;97.60;;;;;;4980528;28;20046;-62
2023/07/09 08:32:13;;;;;;;13.55;10.20;;;28.10;97.20;;;;;;4976414;28;20477;-62
2023/07/09 08:34:41;;;;;;;14.68;10.30;;;28.20;97.30;;;;;;4975329;28;20043;-63
2023/07/09 08:37:08;;;;;;;14.65;10.10;;;28.30;97.30;;;;;;4973235;28;20058;-65
2023/07/09 08:39:34;;;;;;;13.07;9.65;;;28.30;97.10;;;;;;4979911;28;20519;-62
2023/07/09 08:42:07;;;;;;;14.57;10.55;;;28.40;97.20;;;;;;4973920;28;20093;-62
2023/07/09 08:44:32;;;;;;;15.23;9.73;;;28.50;97.10;;;;;;4975460;28;20497;-65
2023/07/09 08:47:05;;;;;;;16.58;9.32;;;28.60;96.90;;;;;;4972805;28;20093;-65
2023/07/09 08:49:55;;;;;;;17.38;10.02;;;28.70;96.60;;;;;;4987162;28;20081;-63
2023/07/09 08:52:20;;;;;;;12.85;9.30;;;28.70;94.90;;;;;;4994370;28;20499;-62
2023/07/09 08:54:49;;;;;;;12.98;8.95;;;28.70;96.10;;;;;;4984899;28;20042;-65
2023/07/09 08:57:23;;;;;;;16.42;9.52;;;28.90;96.60;;;;;;4992491;28;20488;-64
2023/07/09 08:59:53;;;;;;;13.98;8.88;;;28.80;95.80;;;;;;4993329;28;20040;-65
2023/07/09 09:02:28;;;;;;;;;;;29.00;96.10;;;;;;4994770;28;20041;-64
2023/07/09 09:04:54;;;;;;;15.90;10.02;;;29.10;95.70;;;;;;4984157;28;19918;-65
2023/07/09 09:07:31;;;;;;;13.73;9.30;;;29.10;95.70;;;;;;4977488;28;20031;-65
2023/07/09 09:10:02;;;;;;;13.48;9.52;;;29.20;95.40;;;;;;4991750;28;20042;-65
2023/07/09 09:12:57;;;;;;;15.48;10.25;;;29.40;95.80;;;;;;4976665;28;20034;-65
2023/07/09 09:15:24;;;;;;;12.98;8.85;;;29.50;95.70;;;;;;4975851;28;20046;-65
2023/07/09 09:17:59;;;;;;;12.27;8.95;;;29.60;95.50;;;;;;4994083;28;20038;-64
2023/07/09 09:20:28;;;;;;;16.83;8.88;;;29.80;95.00;;;;;;4980617;28;20085;-65
2023/07/09 09:23:10;;;;;;;12.30;9.13;;;29.90;95.40;;;;;;4992231;28;20539;-65
2023/07/09 09:25:40;;;;;;;17.25;11.30;;;30.00;95.00;;;;;;4974885;28;20050;-65
2023/07/09 09:28:05;;;;;;;13.35;10.30;;;30.10;94.90;;;;;;4977341;28;20125;-65
2023/07/09 09:30:31;;;;;;;13.48;9.57;;;30.30;94.90;;;;;;4988145;28;20126;-66
2023/07/09 09:32:59;;;;;;;14.20;11.13;;;30.30;94.60;;;;;;4981932;28;20117;-63
2023/07/09 09:35:37;;;;;;;13.32;8.80;;;30.50;94.80;;;;;;4990997;28;20489;-65
2023/07/09 09:38:09;;;;;;;14.88;9.05;;;30.60;94.50;;;;;;4980684;28;20031;-63
2023/07/09 09:40:36;;;;;;;11.85;9.27;;;30.60;94.30;;;;;;4979187;28;20497;-65
2023/07/09 09:43:02;;;;;;;12.73;8.48;;;30.60;93.90;;;;;;4991975;28;20073;-65
2023/07/09 09:45:41;;;;;;;11.23;8.18;;;30.60;93.50;;;;;;4978189;28;20038;-65
2023/07/09 09:48:29;;;;;;;12.27;8.15;;;30.70;93.80;;;;;;4992171;28;20393;-64
2023/07/09 09:51:00;;;;;;;12.88;8.90;;;30.90;92.80;;;;;;4993705;28;20105;-63
2023/07/09 09:53:28;;;;;;;13.68;7.85;;;31.00;92.80;;;;;;4975103;28;20034;-63
2023/07/09 09:55:55;;;;;;;16.30;9.60;;;31.10;92.80;;;;;;4977438;28;20104;-63
2023/07/09 09:58:27;;;;;;;14.32;8.13;;;31.20;92.70;;;;;;4984874;28;20073;-64
2023/07/09 10:00:56;;;;;;;14.13;8.23;;;31.30;92.40;;;;;;4993876;28;20473;-66
2023/07/09 10:03:31;;;;;;;14.68;7.70;;;31.30;92.60;;;;;;4971471;28;20417;-65
2023/07/09 10:06:03;;;;;;;16.60;7.90;;;31.30;92.20;;;;;;4982223;28;20125;-65
2023/07/09 10:08:31;;;;;;;12.15;7.40;;;31.40;92.00;;;;;;4972979;28;20050;-65
2023/07/09 10:11:08;;;;;;;9.95;6.47;;;31.40;91.70;;;;;;4972406;28;20482;-66
2023/07/09 10:13:41;;;;;;;14.60;7.57;;;31.40;89.80;;;;;;4978065;28;20030;-63
2023/07/09 10:16:19;;;;;;;12.77;8.00;;;31.50;91.00;;;;;;4984544;28;20049;-65
2023/07/09 10:19:04;;;;;;;12.77;8.02;;;31.40;90.70;;;;;;4982737;28;20042;-65
2023/07/09 10:21:36;;;;;;;14.13;8.70;;;31.50;90.60;;;;;;4973060;28;20445;-64
2023/07/09 10:24:22;;;;;;;9.23;6.10;;;31.60;90.60;;;;;;4973827;28;20039;-65
2023/07/09 10:27:07;;;;;;;12.88;7.20;;;31.70;91.00;;;;;;4973525;28;20046;-64
2023/07/09 10:29:51;;;;;;;11.10;6.47;;;31.80;90.50;;;;;;4965734;28;20053;-65
2023/07/09 10:32:37;;;;;;;10.18;6.30;;;31.90;89.90;;;;;;4977837;28;20049;-64
2023/07/09 10:35:09;;;;;;;14.00;6.25;;;31.90;90.00;;;;;;4968000;28;20118;-64
2023/07/09 10:37:56;;;;;;;9.55;6.03;;;31.90;89.80;;;;;;4973894;28;20149;-64
2023/07/09 10:40:33;;;;;;;9.43;6.00;;;31.90;84.90;;;;;;4967088;28;20266;-64
2023/07/09 10:43:02;;;;;;;12.27;6.50;;;32.00;86.90;;;;;;4992883;28;20068;-64
2023/07/09 10:45:31;;;;;;;8.77;5.95;;;32.10;87.90;;;;;;4983733;28;20034;-64
2023/07/09 10:48:10;;;;;;;13.23;7.05;;;32.20;89.60;;;;;;4971745;28;20077;-64
2023/07/09 10:50:43;;;;;;;9.70;6.60;;;32.20;90.30;;;;;;4973387;28;20039;-64
2023/07/09 10:53:28;;;;;;;10.25;7.72;;;32.30;89.90;;;;;;4971509;28;20046;-64
2023/07/09 10:56:04;;;;;;;11.38;7.53;;;32.50;89.10;;;;;;4967353;28;20509;-64
2023/07/09 10:59:00;;;;;;;11.00;7.30;;;32.50;90.30;;;;;;4961189;28;20047;-66
2023/07/09 11:01:32;;;;;;;8.88;6.97;;;32.50;86.70;;;;;;4960510;28;20385;-65
2023/07/09 11:04:08;;;;;;;9.30;6.72;;;32.60;87.70;;;;;;4962084;28;20079;-66
2023/07/09 11:06:46;;;;;;;13.35;6.80;;;32.70;87.50;;;;;;4961961;28;20051;-66
2023/07/09 11:09:33;;;;;;;12.45;7.38;;;32.70;87.90;;;;;;4959043;28;20049;-65
2023/07/09 11:12:17;;;;;;;10.75;7.18;;;32.80;87.70;;;;;;4961167;28;20413;-65
2023/07/09 11:14:49;;;;;;;9.60;7.05;;;32.80;85.90;;;;;;4980169;28;20044;-65
2023/07/09 11:17:19;;;;;;;10.93;7.07;;;32.90;85.10;;;;;;4980399;28;20042;-64
2023/07/09 11:19:53;;;;;;;11.10;6.77;;;33.00;85.90;;;;;;4964280;28;20039;-65
2023/07/09 11:22:23;;;;;;;9.88;6.75;;;33.00;85.30;;;;;;4970109;28;20046;-65
2023/07/09 11:25:08;;;;;;;13.45;7.10;;;33.10;86.00;;;;;;4962456;28;20132;-65
2023/07/09 11:27:44;;;;;;;8.68;6.63;;;33.20;83.50;;;;;;4973623;28;20050;-66
2023/07/09 11:30:22;;;;;;;8.85;6.97;;;33.30;85.00;;;;;;4966937;28;20502;-66
2023/07/09 11:32:53;;;;;;;11.63;6.40;;;33.40;84.00;;;;;;4969359;28;20441;-64
2023/07/09 11:35:44;;;;;;;11.40;6.78;;;33.40;83.60;;;;;;4970650;28;20035;-64
2023/07/09 11:38:17;;;;;;;10.20;6.63;;;33.50;81.00;;;;;;4969704;28;20074;-64
2023/07/09 11:41:00;;;;;;;12.20;6.75;;;33.50;82.20;;;;;;4976302;28;20488;-65
2023/07/09 11:43:33;;;;;;;9.18;6.30;;;33.70;80.00;;;;;;4966655;28;20093;-64
2023/07/09 11:46:11;;;;;;;10.50;6.82;;;33.80;80.70;;;;;;4971750;28;20050;-64
2023/07/09 11:48:39;;;;;;;11.90;6.10;;;33.90;79.90;;;;;;4970895;28;20054;-65
2023/07/09 11:51:13;;;;;;;10.48;6.85;;;34.00;79.60;;;;;;4972532;28;20038;-65
2023/07/09 11:53:50;;;;;;;9.30;5.88;;;34.10;78.90;;;;;;4984324;28;20039;-64
2023/07/09 11:56:19;;;;;;;7.75;5.97;;;34.10;78.10;;;;;;4987149;28;20109;-65
2023/07/09 11:58:52;;;;;;;8.82;6.45;;;34.20;79.50;;;;;;4987321;28;20484;-65
2023/07/09 12:01:22;;;;;;;13.10;6.50;;;34.30;79.70;;;;;;4980395;28;20043;-65
2023/07/09 12:03:48;;;;;;;10.25;6.28;;;34.50;79.30;;;;;;4984085;28;20057;-64
2023/07/09 12:06:22;;;;;;;9.63;6.07;;;34.60;78.50;;;;;;4992076;28;20051;-64
2023/07/09 12:08:50;;;;;;;9.25;6.20;;;34.70;77.50;;;;;;4978801;28;20496;-67
2023/07/09 12:11:22;;;;;;;8.05;5.35;;;34.80;77.90;;;;;;4975352;28;20042;-67
2023/07/09 12:13:47;;;;;;;8.55;4.93;;;34.90;78.00;;;;;;4976252;28;20061;-67
2023/07/09 12:16:30;;;;;;;8.40;5.57;;;34.90;77.60;;;;;;4959306;28;20477;-64
2023/07/09 12:18:56;;;;;;;10.82;6.05;;;34.70;74.60;;;;;;4975382;28;20106;-66
2023/07/09 12:21:24;;;;;;;9.85;5.30;;;34.70;76.00;;;;;;4976067;28;20534;-67
2023/07/09 12:23:50;;;;;;;10.02;5.43;;;34.70;76.10;;;;;;4962497;28;20072;-69
2023/07/09 12:26:18;;;;;;;11.48;5.95;;;34.80;77.00;;;;;;4977643;28;20046;-67
2023/07/09 12:28:53;;;;;;;7.22;5.10;;;34.90;76.50;;;;;;4972386;28;20041;-67
2023/07/09 12:31:25;;;;;;;9.15;5.28;;;34.90;75.00;;;;;;4987045;28;20416;-66
2023/07/09 12:33:54;;;;;;;8.65;5.20;;;34.80;74.10;;;;;;4988115;28;20069;-65
2023/07/09 12:36:20;;;;;;;6.50;5.50;;;34.80;75.10;;;;;;4975617;28;20045;-65
2023/07/09 12:38:49;;;;;;;12.13;5.90;;;34.90;75.90;;;;;;4974858;28;20508;-65
2023/07/09 12:41:29;;;;;;;8.63;5.30;;;35.00;75.10;;;;;;4973650;28;20041;-65